createdAt,value
2023-03-14T00:08:15.498Z,70.1
2023-03-14T00:13:15.536Z,70
2023-03-14T00:23:15.479Z,69.7
2023-03-14T00:33:15.491Z,69.6
2023-03-14T00:38:15.491Z,69.6
2023-03-14T00:43:15.486Z,69.7
2023-03-14T00:53:15.505Z,69.5
2023-03-14T00:58:15.535Z,69.9
2023-03-14T01:08:15.576Z,69.9
2023-03-14T01:18:15.557Z,69.7
2023-03-14T01:28:15.526Z,69.5
2023-03-14T01:38:15.532Z,69.5
2023-03-14T01:43:15.516Z,69.6
2023-03-14T01:48:15.531Z,69.5
2023-03-14T01:53:15.548Z,69.8
2023-03-14T02:03:15.611Z,70.1
2023-03-14T02:08:15.570Z,70.1
2023-03-14T02:18:15.542Z,70.2
2023-03-14T02:23:15.559Z,70.1
2023-03-14T02:28:15.542Z,70.5
2023-03-14T02:33:15.565Z,70.2
2023-03-14T02:38:15.592Z,70.3
2023-03-14T02:43:15.615Z,70.1
2023-03-14T02:48:15.600Z,70.2
2023-03-14T02:58:15.578Z,70.5
2023-03-14T03:03:15.742Z,70.4
2023-03-14T03:13:15.595Z,70.1
2023-03-14T03:23:15.639Z,69.8
2023-03-14T03:33:15.608Z,69.8
2023-03-14T03:38:15.624Z,69.8
2023-03-14T03:48:15.666Z,69.9
2023-03-14T03:58:15.666Z,69.8
2023-03-14T04:03:15.643Z,69.7
2023-03-14T04:13:15.673Z,69.6
2023-03-14T04:23:15.632Z,69.6
2023-03-14T04:28:15.652Z,69.5
2023-03-14T04:38:15.711Z,69.5
2023-03-14T04:48:15.704Z,69.5
2023-03-14T04:58:15.725Z,70.1
2023-03-14T05:08:15.684Z,69.7
2023-03-14T05:13:15.675Z,69.7
2023-03-14T05:23:15.755Z,69.9
2023-03-14T05:28:15.683Z,69.8
2023-03-14T05:38:15.671Z,69.8
2023-03-14T05:43:15.839Z,70.3
2023-03-14T05:48:15.680Z,70.3
2023-03-14T05:58:15.790Z,70.1
2023-03-14T06:08:17.869Z,69.9
2023-03-14T06:18:15.697Z,69.8
2023-03-14T06:23:15.729Z,69.8
2023-03-14T06:33:15.729Z,69.8
2023-03-14T06:38:15.723Z,70.3
2023-03-14T06:48:15.710Z,70.3
2023-03-14T06:58:15.748Z,70
2023-03-14T07:08:15.725Z,69.8
2023-03-14T07:18:15.744Z,70
2023-03-14T07:28:15.713Z,70
2023-03-14T07:33:15.718Z,70.2
2023-03-14T07:43:15.766Z,70.6
2023-03-14T07:53:15.727Z,70.3
2023-03-14T07:58:15.750Z,70.4
2023-03-14T08:03:15.757Z,70.7
2023-03-14T08:08:15.785Z,70.5
2023-03-14T08:18:15.735Z,70.8
2023-03-14T08:28:15.779Z,71
2023-03-14T08:38:15.985Z,70.9
2023-03-14T08:43:15.798Z,70.5
2023-03-14T08:53:15.758Z,70.3
2023-03-14T09:03:15.854Z,70.2
2023-03-14T09:08:15.736Z,70.1
2023-03-14T09:13:15.781Z,70
2023-03-14T09:18:15.758Z,70
2023-03-14T09:28:15.780Z,70.6
2023-03-14T09:33:15.867Z,70.4
2023-03-14T09:43:15.755Z,70.1
2023-03-14T09:48:15.753Z,70
2023-03-14T09:53:15.823Z,69.9
2023-03-14T10:03:15.747Z,69.9
2023-03-14T10:08:21.083Z,70.1
2023-03-14T10:18:15.755Z,70.1
2023-03-14T10:23:15.780Z,70.5
2023-03-14T10:33:15.785Z,70.6
2023-03-14T10:43:15.764Z,70.4
2023-03-14T10:53:15.800Z,70.3
2023-03-14T11:03:15.773Z,70.1
2023-03-14T11:08:15.788Z,70.1
2023-03-14T11:18:15.803Z,70.4
2023-03-14T11:28:15.774Z,70.4
2023-03-14T11:38:16.011Z,70.4
2023-03-14T11:48:15.802Z,70.1
2023-03-14T11:58:15.820Z,70
2023-03-14T12:03:15.790Z,70.1
2023-03-14T12:08:15.798Z,70
2023-03-14T12:18:15.848Z,70.4
2023-03-14T12:28:15.789Z,70.4
2023-03-14T12:33:15.795Z,70.3
2023-03-14T12:43:15.834Z,70.1
2023-03-14T12:53:15.822Z,70.1
2023-03-14T13:03:15.832Z,70
2023-03-14T13:13:15.798Z,70.1
2023-03-14T13:23:15.937Z,70.1
2023-03-14T13:33:15.834Z,70.1
2023-03-14T13:38:15.927Z,70.1
2023-03-14T13:48:15.935Z,70
2023-03-14T13:58:15.801Z,70
2023-03-14T14:03:15.805Z,70
2023-03-14T14:13:15.849Z,69.7
2023-03-14T14:18:15.814Z,69.7
2023-03-14T14:28:15.825Z,70
2023-03-14T14:38:15.836Z,70
2023-03-14T14:43:15.832Z,69.9
2023-03-14T14:48:15.823Z,69.9
2023-03-14T14:53:15.826Z,69.9
2023-03-14T14:58:15.857Z,69.9
2023-03-14T15:08:15.895Z,69.9
2023-03-14T15:18:15.872Z,69.9
2023-03-14T15:28:15.835Z,69.7
2023-03-14T15:38:15.854Z,69.7
2023-03-14T15:48:15.825Z,69.7
2023-03-14T15:53:15.824Z,69.7
2023-03-14T15:58:15.856Z,69.7
2023-03-14T16:08:15.827Z,69.7
2023-03-14T16:13:15.822Z,69.6
2023-03-14T16:18:21.954Z,69.6
2023-03-14T16:28:15.855Z,69.7
2023-03-14T16:38:15.852Z,69.6
2023-03-14T16:48:15.838Z,69.6
2023-03-14T16:53:15.894Z,69.6
2023-03-14T17:03:15.850Z,69.6
2023-03-14T17:08:15.823Z,69.5
2023-03-14T17:13:15.825Z,69.5
2023-03-14T17:18:15.857Z,69.6
2023-03-14T17:23:15.865Z,69.6
2023-03-14T17:33:15.831Z,69.6
2023-03-14T17:38:15.851Z,69.6
2023-03-14T17:48:15.858Z,69.6
2023-03-14T17:53:15.847Z,69.6
2023-03-14T18:03:15.836Z,69.6
2023-03-14T18:08:15.866Z,69.6
2023-03-14T18:18:15.836Z,69.6
2023-03-14T18:23:15.869Z,69.6
2023-03-14T18:33:15.876Z,69.6
2023-03-14T18:43:15.988Z,69.6
2023-03-14T18:48:15.896Z,69.6
2023-03-14T18:58:15.868Z,69.4
2023-03-14T19:03:15.847Z,69.5
2023-03-14T19:08:15.911Z,69.2
2023-03-14T19:18:15.887Z,69.5
2023-03-14T19:28:15.868Z,69.5
2023-03-14T19:38:15.879Z,69.5
2023-03-14T19:48:15.849Z,69.5
2023-03-14T19:58:15.880Z,69.5
2023-03-14T20:08:15.854Z,69.5
2023-03-14T20:18:15.952Z,69.3
2023-03-14T20:23:15.868Z,69.2
2023-03-14T20:33:15.863Z,69.2
2023-03-14T20:38:15.975Z,69.2
2023-03-14T20:48:15.860Z,69
2023-03-14T20:53:15.998Z,69.1
2023-03-14T21:03:15.885Z,69.1
2023-03-14T21:08:15.878Z,69.1
2023-03-14T21:18:15.863Z,69.1
2023-03-14T21:28:15.883Z,69.1
2023-03-14T21:38:15.867Z,69
2023-03-14T21:43:15.867Z,69.1
2023-03-14T21:53:15.889Z,69
2023-03-14T21:58:15.874Z,69
2023-03-14T22:08:15.869Z,69
2023-03-14T22:18:15.906Z,68.8
2023-03-14T22:28:15.881Z,68.8
2023-03-14T22:38:18.725Z,68.9
2023-03-14T22:48:15.872Z,68.6
2023-03-14T22:58:15.891Z,68.7
2023-03-14T23:08:15.877Z,68.5
2023-03-14T23:18:15.910Z,68.5
2023-03-14T23:28:15.905Z,68.5
2023-03-14T23:38:16.177Z,68.8
2023-03-14T23:43:16.153Z,67.8
2023-03-14T23:53:16.244Z,68.4
